sensor_id;sensor_type;location;lat;lon;timestamp;pressure;altitude;pressure_sealevel;temperature;humidity
10474;BME280;5284;50.446;7.904;2023-04-24T00:00:14;97132.03;;;10.66;100.00
10474;BME280;5284;50.446;7.904;2023-04-24T00:05:19;97128.69;;;10.64;100.00
10474;BME280;5284;50.446;7.904;2023-04-24T00:10:22;97132.34;;;10.63;100.00
10474;BME280;5284;50.446;7.904;2023-04-24T00:15:26;97128.69;;;10.57;100.00
10474;BME280;5284;50.446;7.904;2023-04-24T00:20:29;97124.84;;;10.51;100.00
10474;BME280;5284;50.446;7.904;2023-04-24T00:25:33;97116.00;;;10.51;100.00
10474;BME280;5284;50.446;7.904;2023-04-24T00:30:38;97111.19;;;10.54;100.00
10474;BME280;5284;50.446;7.904;2023-04-24T00:35:40;97098.84;;;10.53;100.00
10474;BME280;5284;50.446;7.904;2023-04-24T00:40:45;97098.84;;;10.53;100.00
10474;BME280;5284;50.446;7.904;2023-04-24T00:45:50;97102.50;;;10.52;100.00
10474;BME280;5284;50.446;7.904;2023-04-24T00:50:53;97098.84;;;10.53;100.00
10474;BME280;5284;50.446;7.904;2023-04-24T00:55:56;97097.19;;;10.52;100.00
10474;BME280;5284;50.446;7.904;2023-04-24T01:01:00;97093.34;;;10.47;100.00
10474;BME280;5284;50.446;7.904;2023-04-24T01:06:05;97097.19;;;10.44;100.00
10474;BME280;5284;50.446;7.904;2023-04-24T01:11:07;97096.66;;;10.49;100.00
10474;BME280;5284;50.446;7.904;2023-04-24T01:16:12;97106.66;;;10.39;100.00
10474;BME280;5284;50.446;7.904;2023-04-24T01:21:15;97115.66;;;10.38;100.00
10474;BME280;5284;50.446;7.904;2023-04-24T01:26:20;97100.81;;;10.35;100.00
10474;BME280;5284;50.446;7.904;2023-04-24T01:31:23;97106.16;;;10.35;100.00
10474;BME280;5284;50.446;7.904;2023-04-24T01:36:27;97109.47;;;10.37;100.00
10474;BME280;5284;50.446;7.904;2023-04-24T01:41:32;97105.31;;;10.35;100.00
10474;BME280;5284;50.446;7.904;2023-04-24T01:46:36;97114.97;;;10.28;100.00
10474;BME280;5284;50.446;7.904;2023-04-24T01:51:39;97128.63;;;10.25;100.00
10474;BME280;5284;50.446;7.904;2023-04-24T01:56:43;97125.44;;;10.21;100.00
10474;BME280;5284;50.446;7.904;2023-04-24T02:01:46;97127.09;;;10.22;100.00
10474;BME280;5284;50.446;7.904;2023-04-24T02:06:49;97131.09;;;10.18;100.00
10474;BME280;5284;50.446;7.904;2023-04-24T02:11:53;97118.59;;;10.19;100.00
10474;BME280;5284;50.446;7.904;2023-04-24T02:16:56;97129.44;;;10.17;100.00
10474;BME280;5284;50.446;7.904;2023-04-24T02:21:59;97131.41;;;10.07;100.00
10474;BME280;5284;50.446;7.904;2023-04-24T02:27:03;97129.75;;;10.06;100.00
10474;BME280;5284;50.446;7.904;2023-04-24T02:32:07;97135.22;;;10.05;100.00
10474;BME280;5284;50.446;7.904;2023-04-24T02:37:13;97135.53;;;10.02;100.00
10474;BME280;5284;50.446;7.904;2023-04-24T02:42:18;97135.66;;;10.00;100.00
10474;BME280;5284;50.446;7.904;2023-04-24T02:47:21;97128.84;;;9.98;100.00
10474;BME280;5284;50.446;7.904;2023-04-24T02:52:24;97123.16;;;9.93;100.00
10474;BME280;5284;50.446;7.904;2023-04-24T02:57:28;97134.28;;;9.88;100.00
10474;BME280;5284;50.446;7.904;2023-04-24T03:02:31;97141.75;;;9.85;100.00
10474;BME280;5284;50.446;7.904;2023-04-24T03:07:34;97147.41;;;9.82;100.00
10474;BME280;5284;50.446;7.904;2023-04-24T03:12:38;97140.25;;;9.74;100.00
10474;BME280;5284;50.446;7.904;2023-04-24T03:17:41;97150.34;;;9.71;100.00
10474;BME280;5284;50.446;7.904;2023-04-24T03:22:44;97154.34;;;9.67;100.00
10474;BME280;5284;50.446;7.904;2023-04-24T03:27:48;97161.44;;;9.58;100.00
10474;BME280;5284;50.446;7.904;2023-04-24T03:33:02;97166.41;;;9.53;100.00
10474;BME280;5284;50.446;7.904;2023-04-24T03:38:09;97167.50;;;9.43;100.00
10474;BME280;5284;50.446;7.904;2023-04-24T03:43:29;97171.78;;;9.36;100.00
10474;BME280;5284;50.446;7.904;2023-04-24T03:48:34;97176.19;;;9.27;100.00
10474;BME280;5284;50.446;7.904;2023-04-24T03:53:37;97180.34;;;9.22;100.00
10474;BME280;5284;50.446;7.904;2023-04-24T03:58:42;97186.78;;;9.19;100.00
10474;BME280;5284;50.446;7.904;2023-04-24T04:03:45;97193.88;;;9.11;100.00
10474;BME280;5284;50.446;7.904;2023-04-24T04:08:53;97216.50;;;8.98;100.00
10474;BME280;5284;50.446;7.904;2023-04-24T04:13:57;97208.72;;;8.96;100.00
10474;BME280;5284;50.446;7.904;2023-04-24T04:19:00;97213.56;;;8.83;100.00
10474;BME280;5284;50.446;7.904;2023-04-24T04:24:05;97223.06;;;8.68;100.00
10474;BME280;5284;50.446;7.904;2023-04-24T04:29:14;97231.56;;;8.54;100.00
10474;BME280;5284;50.446;7.904;2023-04-24T04:34:22;97231.63;;;8.45;100.00
10474;BME280;5284;50.446;7.904;2023-04-24T04:39:26;97234.06;;;8.29;100.00
10474;BME280;5284;50.446;7.904;2023-04-24T04:44:41;97234.69;;;8.23;100.00
10474;BME280;5284;50.446;7.904;2023-04-24T04:49:50;97241.44;;;8.17;100.00
10474;BME280;5284;50.446;7.904;2023-04-24T04:54:58;97234.00;;;8.11;100.00
10474;BME280;5284;50.446;7.904;2023-04-24T05:00:22;97252.59;;;8.11;100.00
10474;BME280;5284;50.446;7.904;2023-04-24T05:05:27;97254.25;;;8.12;100.00
10474;BME280;5284;50.446;7.904;2023-04-24T05:10:30;97261.41;;;8.12;100.00
10474;BME280;5284;50.446;7.904;2023-04-24T05:15:35;97252.75;;;8.19;100.00
10474;BME280;5284;50.446;7.904;2023-04-24T05:20:38;97257.88;;;8.21;100.00
10474;BME280;5284;50.446;7.904;2023-04-24T05:25:41;97264.97;;;8.30;100.00
10474;BME280;5284;50.446;7.904;2023-04-24T05:30:48;97272.28;;;8.45;100.00
10474;BME280;5284;50.446;7.904;2023-04-24T05:35:53;97272.09;;;8.56;100.00
10474;BME280;5284;50.446;7.904;2023-04-24T05:40:59;97280.31;;;8.80;100.00
10474;BME280;5284;50.446;7.904;2023-04-24T05:46:03;97293.78;;;8.96;100.00
10474;BME280;5284;50.446;7.904;2023-04-24T05:51:07;97307.59;;;9.17;100.00
10474;BME280;5284;50.446;7.904;2023-04-24T05:56:10;97307.31;;;9.55;100.00
10474;BME280;5284;50.446;7.904;2023-04-24T06:01:14;97306.31;;;9.81;100.00
10474;BME280;5284;50.446;7.904;2023-04-24T06:06:21;97305.38;;;9.65;100.00
10474;BME280;5284;50.446;7.904;2023-04-24T06:11:24;97309.28;;;9.53;100.00
10474;BME280;5284;50.446;7.904;2023-04-24T06:16:31;97309.56;;;9.93;100.00
10474;BME280;5284;50.446;7.904;2023-04-24T06:21:40;97311.84;;;10.39;100.00
10474;BME280;5284;50.446;7.904;2023-04-24T06:26:44;97317.97;;;10.64;99.59
10474;BME280;5284;50.446;7.904;2023-04-24T06:31:49;97319.91;;;10.96;94.99
10474;BME280;5284;50.446;7.904;2023-04-24T06:36:54;97308.28;;;11.29;94.86
10474;BME280;5284;50.446;7.904;2023-04-24T06:41:58;97307.44;;;11.04;96.58
10474;BME280;5284;50.446;7.904;2023-04-24T06:47:03;97303.66;;;11.47;91.61
10474;BME280;5284;50.446;7.904;2023-04-24T06:52:06;97317.00;;;11.55;93.25
10474;BME280;5284;50.446;7.904;2023-04-24T06:57:09;97318.50;;;11.33;94.61
10474;BME280;5284;50.446;7.904;2023-04-24T07:02:15;97302.09;;;11.04;92.22
10474;BME280;5284;50.446;7.904;2023-04-24T07:07:18;97320.63;;;11.14;92.56
10474;BME280;5284;50.446;7.904;2023-04-24T07:12:25;97300.97;;;10.58;96.51
10474;BME280;5284;50.446;7.904;2023-04-24T07:17:29;97296.53;;;10.82;96.89
10474;BME280;5284;50.446;7.904;2023-04-24T07:22:32;97302.53;;;10.76;96.45
10474;BME280;5284;50.446;7.904;2023-04-24T07:27:35;97302.44;;;11.17;91.78
10474;BME280;5284;50.446;7.904;2023-04-24T07:32:39;97297.13;;;11.49;89.83
10474;BME280;5284;50.446;7.904;2023-04-24T07:37:42;97304.09;;;11.18;90.93
10474;BME280;5284;50.446;7.904;2023-04-24T07:42:49;97300.75;;;10.92;92.65
10474;BME280;5284;50.446;7.904;2023-04-24T07:47:54;97306.69;;;10.78;93.64
10474;BME280;5284;50.446;7.904;2023-04-24T07:52:58;97311.53;;;10.83;95.61
10474;BME280;5284;50.446;7.904;2023-04-24T07:58:01;97318.25;;;10.54;98.81
10474;BME280;5284;50.446;7.904;2023-04-24T08:03:06;97313.66;;;10.71;97.39
10474;BME280;5284;50.446;7.904;2023-04-24T08:08:09;97326.56;;;10.92;98.87
10474;BME280;5284;50.446;7.904;2023-04-24T08:13:12;97331.66;;;10.69;96.84
10474;BME280;5284;50.446;7.904;2023-04-24T08:18:18;97341.66;;;10.67;98.91
10474;BME280;5284;50.446;7.904;2023-04-24T08:23:22;97354.22;;;10.83;97.51
10474;BME280;5284;50.446;7.904;2023-04-24T08:28:25;97352.97;;;10.62;100.00
10474;BME280;5284;50.446;7.904;2023-04-24T08:33:29;97352.22;;;10.52;100.00
10474;BME280;5284;50.446;7.904;2023-04-24T08:38:35;97365.50;;;10.44;100.00
10474;BME280;5284;50.446;7.904;2023-04-24T08:43:42;97373.94;;;10.31;100.00
10474;BME280;5284;50.446;7.904;2023-04-24T08:48:50;97361.97;;;10.35;100.00
10474;BME280;5284;50.446;7.904;2023-04-24T08:53:57;97375.56;;;10.24;100.00
10474;BME280;5284;50.446;7.904;2023-04-24T08:59:00;97377.72;;;10.21;100.00
10474;BME280;5284;50.446;7.904;2023-04-24T09:04:07;97385.72;;;10.03;100.00
10474;BME280;5284;50.446;7.904;2023-04-24T09:09:10;97386.31;;;10.15;100.00
10474;BME280;5284;50.446;7.904;2023-04-24T09:14:14;97399.03;;;10.21;100.00
10474;BME280;5284;50.446;7.904;2023-04-24T09:19:20;97398.81;;;10.14;100.00
10474;BME280;5284;50.446;7.904;2023-04-24T09:24:23;97397.38;;;10.02;100.00
10474;BME280;5284;50.446;7.904;2023-04-24T09:29:28;97411.91;;;10.08;100.00
10474;BME280;5284;50.446;7.904;2023-04-24T09:34:33;97420.44;;;10.11;100.00
10474;BME280;5284;50.446;7.904;2023-04-24T09:39:36;97448.34;;;9.90;100.00
10474;BME280;5284;50.446;7.904;2023-04-24T09:44:42;97462.66;;;9.27;100.00
10474;BME280;5284;50.446;7.904;2023-04-24T09:49:46;97470.84;;;8.89;100.00
10474;BME280;5284;50.446;7.904;2023-04-24T09:54:52;97492.41;;;8.86;100.00
10474;BME280;5284;50.446;7.904;2023-04-24T09:59:57;97483.69;;;8.84;100.00
10474;BME280;5284;50.446;7.904;2023-04-24T10:05:13;97483.34;;;9.06;100.00
10474;BME280;5284;50.446;7.904;2023-04-24T10:10:17;97482.44;;;9.42;100.00
10474;BME280;5284;50.446;7.904;2023-04-24T10:15:21;97495.06;;;9.84;100.00
10474;BME280;5284;50.446;7.904;2023-04-24T10:20:29;97505.47;;;9.95;100.00
10474;BME280;5284;50.446;7.904;2023-04-24T10:25:34;97508.09;;;10.22;100.00
10474;BME280;5284;50.446;7.904;2023-04-24T10:30:38;97508.53;;;10.35;100.00
10474;BME280;5284;50.446;7.904;2023-04-24T10:35:50;97512.25;;;10.60;100.00
10474;BME280;5284;50.446;7.904;2023-04-24T10:40:57;97517.41;;;10.61;100.00
10474;BME280;5284;50.446;7.904;2023-04-24T10:46:09;97521.00;;;11.03;100.00
10474;BME280;5284;50.446;7.904;2023-04-24T10:51:16;97532.94;;;10.91;100.00
10474;BME280;5284;50.446;7.904;2023-04-24T10:56:21;97532.25;;;10.63;100.00
10474;BME280;5284;50.446;7.904;2023-04-24T11:01:25;97536.03;;;10.78;100.00
10474;BME280;5284;50.446;7.904;2023-04-24T11:06:30;97543.03;;;10.79;100.00
10474;BME280;5284;50.446;7.904;2023-04-24T11:11:36;97552.22;;;11.10;100.00
10474;BME280;5284;50.446;7.904;2023-04-24T11:16:44;97558.25;;;11.12;100.00
10474;BME280;5284;50.446;7.904;2023-04-24T11:21:57;97563.09;;;11.09;100.00
10474;BME280;5284;50.446;7.904;2023-04-24T11:27:06;97566.16;;;10.96;100.00
10474;BME280;5284;50.446;7.904;2023-04-24T11:32:24;97577.47;;;10.90;100.00
10474;BME280;5284;50.446;7.904;2023-04-24T11:37:36;97600.34;;;10.41;100.00
10474;BME280;5284;50.446;7.904;2023-04-24T11:42:42;97626.22;;;10.13;100.00
10474;BME280;5284;50.446;7.904;2023-04-24T11:47:45;97618.06;;;9.34;100.00
10474;BME280;5284;50.446;7.904;2023-04-24T11:52:51;97635.03;;;9.60;100.00
10474;BME280;5284;50.446;7.904;2023-04-24T11:57:56;97628.22;;;9.75;100.00
10474;BME280;5284;50.446;7.904;2023-04-24T12:03:06;97635.53;;;10.09;100.00
10474;BME280;5284;50.446;7.904;2023-04-24T12:08:26;97633.94;;;10.68;100.00
10474;BME280;5284;50.446;7.904;2023-04-24T12:13:30;97633.44;;;11.33;100.00
10474;BME280;5284;50.446;7.904;2023-04-24T12:18:34;97638.09;;;12.39;100.00
10474;BME280;5284;50.446;7.904;2023-04-24T12:23:38;97634.97;;;13.56;100.00
10474;BME280;5284;50.446;7.904;2023-04-24T12:28:45;97626.63;;;13.43;100.00
10474;BME280;5284;50.446;7.904;2023-04-24T12:33:51;97635.72;;;13.10;100.00
10474;BME280;5284;50.446;7.904;2023-04-24T12:38:56;97640.22;;;12.12;100.00
10474;BME280;5284;50.446;7.904;2023-04-24T12:43:59;97647.84;;;11.66;100.00
10474;BME280;5284;50.446;7.904;2023-04-24T12:49:03;97654.00;;;11.15;100.00
10474;BME280;5284;50.446;7.904;2023-04-24T12:54:11;97657.03;;;10.77;100.00
10474;BME280;5284;50.446;7.904;2023-04-24T12:59:16;97660.06;;;10.82;100.00
10474;BME280;5284;50.446;7.904;2023-04-24T13:04:19;97654.56;;;11.52;100.00
10474;BME280;5284;50.446;7.904;2023-04-24T13:09:24;97659.53;;;14.60;93.33
10474;BME280;5284;50.446;7.904;2023-04-24T13:14:27;97652.00;;;16.25;81.13
10474;BME280;5284;50.446;7.904;2023-04-24T13:19:35;97653.56;;;15.76;80.83
10474;BME280;5284;50.446;7.904;2023-04-24T13:24:39;97651.06;;;14.18;85.49
10474;BME280;5284;50.446;7.904;2023-04-24T13:29:44;97644.59;;;17.19;75.39
10474;BME280;5284;50.446;7.904;2023-04-24T13:34:50;97641.50;;;16.45;71.31
10474;BME280;5284;50.446;7.904;2023-04-24T13:39:55;97653.09;;;14.99;76.93
10474;BME280;5284;50.446;7.904;2023-04-24T13:44:58;97661.38;;;13.74;82.93
10474;BME280;5284;50.446;7.904;2023-04-24T13:50:14;97649.84;;;12.62;86.94
10474;BME280;5284;50.446;7.904;2023-04-24T13:55:19;97664.44;;;12.11;85.91
10474;BME280;5284;50.446;7.904;2023-04-24T14:00:22;97664.88;;;11.98;91.62
10474;BME280;5284;50.446;7.904;2023-04-24T14:05:26;97645.69;;;12.60;91.03
10474;BME280;5284;50.446;7.904;2023-04-24T14:10:30;97643.78;;;12.28;95.20
10474;BME280;5284;50.446;7.904;2023-04-24T14:15:33;97635.38;;;12.16;97.88
10474;BME280;5284;50.446;7.904;2023-04-24T14:20:39;97640.56;;;12.17;95.06
10474;BME280;5284;50.446;7.904;2023-04-24T14:25:43;97636.63;;;12.45;95.20
10474;BME280;5284;50.446;7.904;2023-04-24T14:30:47;97647.03;;;12.88;91.03
10474;BME280;5284;50.446;7.904;2023-04-24T14:35:51;97638.38;;;13.18;88.47
10474;BME280;5284;50.446;7.904;2023-04-24T14:40:57;97646.06;;;13.21;87.88
10474;BME280;5284;50.446;7.904;2023-04-24T14:46:08;97639.81;;;12.56;90.75
10474;BME280;5284;50.446;7.904;2023-04-24T14:51:11;97638.88;;;12.08;91.24
10474;BME280;5284;50.446;7.904;2023-04-24T14:56:19;97658.94;;;11.79;90.91
10474;BME280;5284;50.446;7.904;2023-04-24T15:01:23;97666.66;;;11.39;95.48
10474;BME280;5284;50.446;7.904;2023-04-24T15:06:29;97677.19;;;11.15;97.27
10474;BME280;5284;50.446;7.904;2023-04-24T15:11:34;97668.50;;;11.38;98.75
10474;BME280;5284;50.446;7.904;2023-04-24T15:16:38;97664.28;;;12.20;95.64
10474;BME280;5284;50.446;7.904;2023-04-24T15:21:42;97676.91;;;13.95;89.29
10474;BME280;5284;50.446;7.904;2023-04-24T15:26:48;97678.75;;;12.51;95.19
10474;BME280;5284;50.446;7.904;2023-04-24T15:31:51;97677.00;;;12.83;94.50
10474;BME280;5284;50.446;7.904;2023-04-24T15:36:54;97672.19;;;12.37;97.18
10474;BME280;5284;50.446;7.904;2023-04-24T15:42:00;97675.16;;;12.18;99.23
10474;BME280;5284;50.446;7.904;2023-04-24T15:47:03;97687.38;;;11.88;100.00
10474;BME280;5284;50.446;7.904;2023-04-24T15:52:06;97679.72;;;11.93;96.62
10474;BME280;5284;50.446;7.904;2023-04-24T15:57:12;97682.78;;;17.98;65.46
10474;BME280;5284;50.446;7.904;2023-04-24T16:02:15;97673.19;;;20.33;53.60
10474;BME280;5284;50.446;7.904;2023-04-24T16:07:21;97679.78;;;16.76;61.88
10474;BME280;5284;50.446;7.904;2023-04-24T16:12:28;97674.34;;;23.96;44.89
10474;BME280;5284;50.446;7.904;2023-04-24T16:17:31;97670.69;;;28.08;38.53
10474;BME280;5284;50.446;7.904;2023-04-24T16:22:37;97677.03;;;28.09;37.11
10474;BME280;5284;50.446;7.904;2023-04-24T16:27:42;97672.47;;;24.31;40.56
10474;BME280;5284;50.446;7.904;2023-04-24T16:32:47;97678.19;;;28.95;35.77
10474;BME280;5284;50.446;7.904;2023-04-24T16:37:50;97672.97;;;27.58;35.77
10474;BME280;5284;50.446;7.904;2023-04-24T16:42:55;97676.88;;;20.52;47.43
10474;BME280;5284;50.446;7.904;2023-04-24T16:47:58;97678.63;;;17.96;52.63
10474;BME280;5284;50.446;7.904;2023-04-24T16:53:01;97676.56;;;16.87;57.52
10474;BME280;5284;50.446;7.904;2023-04-24T16:58:06;97664.94;;;15.64;64.17
10474;BME280;5284;50.446;7.904;2023-04-24T17:03:09;97672.81;;;15.06;70.35
10474;BME280;5284;50.446;7.904;2023-04-24T17:08:16;97673.84;;;14.14;78.43
10474;BME280;5284;50.446;7.904;2023-04-24T17:13:21;97677.53;;;13.11;85.49
10474;BME280;5284;50.446;7.904;2023-04-24T17:18:26;97681.47;;;12.67;89.17
10474;BME280;5284;50.446;7.904;2023-04-24T17:23:28;97683.66;;;12.14;91.46
10474;BME280;5284;50.446;7.904;2023-04-24T17:28:34;97683.66;;;12.14;92.55
10474;BME280;5284;50.446;7.904;2023-04-24T17:33:37;97682.03;;;11.88;94.58
10474;BME280;5284;50.446;7.904;2023-04-24T17:38:41;97691.75;;;11.63;95.17
10474;BME280;5284;50.446;7.904;2023-04-24T17:43:45;97694.19;;;11.57;96.14
10474;BME280;5284;50.446;7.904;2023-04-24T17:48:48;97704.16;;;11.29;98.24
10474;BME280;5284;50.446;7.904;2023-04-24T17:53:51;97693.97;;;11.07;100.00
10474;BME280;5284;50.446;7.904;2023-04-24T17:58:58;97704.72;;;10.98;100.00
10474;BME280;5284;50.446;7.904;2023-04-24T18:04:02;97707.44;;;10.88;100.00
10474;BME280;5284;50.446;7.904;2023-04-24T18:09:06;97706.94;;;10.67;100.00
10474;BME280;5284;50.446;7.904;2023-04-24T18:14:11;97709.91;;;10.64;100.00
10474;BME280;5284;50.446;7.904;2023-04-24T18:19:14;97722.44;;;10.55;100.00
10474;BME280;5284;50.446;7.904;2023-04-24T18:24:19;97722.66;;;10.44;100.00
10474;BME280;5284;50.446;7.904;2023-04-24T18:29:24;97725.06;;;10.37;100.00
10474;BME280;5284;50.446;7.904;2023-04-24T18:34:27;97734.56;;;10.22;100.00
10474;BME280;5284;50.446;7.904;2023-04-24T18:39:33;97740.91;;;10.12;100.00
10474;BME280;5284;50.446;7.904;2023-04-24T18:44:38;97741.13;;;10.01;100.00
10474;BME280;5284;50.446;7.904;2023-04-24T18:49:43;97739.53;;;9.98;100.00
10474;BME280;5284;50.446;7.904;2023-04-24T18:54:46;97734.41;;;9.87;100.00
10474;BME280;5284;50.446;7.904;2023-04-24T18:59:51;97747.03;;;9.85;100.00
10474;BME280;5284;50.446;7.904;2023-04-24T19:04:55;97747.75;;;9.78;100.00
10474;BME280;5284;50.446;7.904;2023-04-24T19:09:59;97757.44;;;9.69;100.00
10474;BME280;5284;50.446;7.904;2023-04-24T19:15:05;97760.38;;;9.66;100.00
10474;BME280;5284;50.446;7.904;2023-04-24T19:20:12;97763.09;;;9.57;100.00
10474;BME280;5284;50.446;7.904;2023-04-24T19:25:15;97786.50;;;9.44;100.00
10474;BME280;5284;50.446;7.904;2023-04-24T19:30:19;97779.50;;;9.43;100.00
10474;BME280;5284;50.446;7.904;2023-04-24T19:35:22;97781.31;;;9.33;100.00
10474;BME280;5284;50.446;7.904;2023-04-24T19:40:25;97786.06;;;9.39;100.00
10474;BME280;5284;50.446;7.904;2023-04-24T19:45:30;97781.75;;;9.38;100.00
10474;BME280;5284;50.446;7.904;2023-04-24T19:50:33;97783.41;;;9.29;100.00
10474;BME280;5284;50.446;7.904;2023-04-24T19:55:36;97789.31;;;9.33;100.00
10474;BME280;5284;50.446;7.904;2023-04-24T20:00:41;97776.69;;;9.25;100.00
10474;BME280;5284;50.446;7.904;2023-04-24T20:05:45;97777.84;;;9.23;100.00
10474;BME280;5284;50.446;7.904;2023-04-24T20:10:48;97772.94;;;9.18;100.00
10474;BME280;5284;50.446;7.904;2023-04-24T20:15:54;97774.03;;;9.16;100.00
10474;BME280;5284;50.446;7.904;2023-04-24T20:20:57;97773.34;;;9.14;100.00
10474;BME280;5284;50.446;7.904;2023-04-24T20:26:00;97780.78;;;9.10;100.00
10474;BME280;5284;50.446;7.904;2023-04-24T20:31:07;97784.72;;;9.07;100.00
10474;BME280;5284;50.446;7.904;2023-04-24T20:36:10;97783.44;;;9.01;100.00
10474;BME280;5284;50.446;7.904;2023-04-24T20:41:13;97786.22;;;9.00;100.00
10474;BME280;5284;50.446;7.904;2023-04-24T20:46:17;97793.38;;;8.99;100.00
10474;BME280;5284;50.446;7.904;2023-04-24T20:51:21;97786.38;;;8.98;100.00
10474;BME280;5284;50.446;7.904;2023-04-24T20:56:24;97796.59;;;8.93;100.00
10474;BME280;5284;50.446;7.904;2023-04-24T21:01:28;97792.66;;;8.88;100.00
10474;BME280;5284;50.446;7.904;2023-04-24T21:06:31;97790.41;;;8.83;100.00
10474;BME280;5284;50.446;7.904;2023-04-24T21:11:35;97790.84;;;8.79;100.00
10474;BME280;5284;50.446;7.904;2023-04-24T21:16:40;97791.91;;;8.67;100.00
10474;BME280;5284;50.446;7.904;2023-04-24T21:21:44;97792.91;;;8.56;100.00
10474;BME280;5284;50.446;7.904;2023-04-24T21:26:47;97786.72;;;8.56;100.00
10474;BME280;5284;50.446;7.904;2023-04-24T21:31:52;97782.22;;;8.47;100.00
10474;BME280;5284;50.446;7.904;2023-04-24T21:36:56;97782.78;;;8.50;100.00
10474;BME280;5284;50.446;7.904;2023-04-24T21:41:58;97777.63;;;8.49;100.00
10474;BME280;5284;50.446;7.904;2023-04-24T21:47:03;97780.41;;;8.47;100.00
10474;BME280;5284;50.446;7.904;2023-04-24T21:52:06;97780.56;;;8.46;100.00
10474;BME280;5284;50.446;7.904;2023-04-24T21:57:09;97771.88;;;8.44;100.00
10474;BME280;5284;50.446;7.904;2023-04-24T22:02:13;97774.63;;;8.33;100.00
10474;BME280;5284;50.446;7.904;2023-04-24T22:07:16;97779.69;;;8.36;100.00
10474;BME280;5284;50.446;7.904;2023-04-24T22:12:19;97770.88;;;8.35;100.00
10474;BME280;5284;50.446;7.904;2023-04-24T22:17:23;97773.53;;;8.35;100.00
10474;BME280;5284;50.446;7.904;2023-04-24T22:22:27;97770.88;;;8.35;100.00
10474;BME280;5284;50.446;7.904;2023-04-24T22:27:30;97779.00;;;8.34;100.00
10474;BME280;5284;50.446;7.904;2023-04-24T22:32:37;97773.22;;;8.29;100.00
10474;BME280;5284;50.446;7.904;2023-04-24T22:37:40;97778.72;;;8.16;100.00
10474;BME280;5284;50.446;7.904;2023-04-24T22:42:43;97772.97;;;8.11;100.00
10474;BME280;5284;50.446;7.904;2023-04-24T22:47:47;97777.03;;;8.06;100.00
10474;BME280;5284;50.446;7.904;2023-04-24T22:52:51;97775.75;;;8.00;100.00
10474;BME280;5284;50.446;7.904;2023-04-24T22:57:54;97762.31;;;7.92;100.00
10474;BME280;5284;50.446;7.904;2023-04-24T23:02:59;97765.09;;;7.91;100.00
10474;BME280;5284;50.446;7.904;2023-04-24T23:08:02;97762.00;;;7.86;100.00
10474;BME280;5284;50.446;7.904;2023-04-24T23:13:05;97762.13;;;7.84;100.00
10474;BME280;5284;50.446;7.904;2023-04-24T23:18:09;97763.88;;;7.74;100.00
10474;BME280;5284;50.446;7.904;2023-04-24T23:23:13;97770.31;;;7.72;100.00
10474;BME280;5284;50.446;7.904;2023-04-24T23:28:16;97761.06;;;7.66;100.00
10474;BME280;5284;50.446;7.904;2023-04-24T23:33:20;97760.63;;;7.61;100.00
10474;BME280;5284;50.446;7.904;2023-04-24T23:38:23;97765.47;;;7.56;100.00
10474;BME280;5284;50.446;7.904;2023-04-24T23:43:29;97764.31;;;7.50;100.00
10474;BME280;5284;50.446;7.904;2023-04-24T23:48:33;97764.38;;;7.39;100.00
10474;BME280;5284;50.446;7.904;2023-04-24T23:53:37;97762.50;;;7.30;100.00
10474;BME280;5284;50.446;7.904;2023-04-24T23:58:40;97768.06;;;7.27;100.00
